Time;durP1;ratioP1;P1;durP2;ratioP2;P2;SDS_P1;SDS_P2;PMS_P1;PMS_P2;Temp;Humidity;BMP_temperature;BMP_pressure;BME280_temperature;BME280_humidity;BME280_pressure;Samples;Min_cycle;Max_cycle;Signal;HPM_P1;HPM_P2
2023/07/06 00:01:26;;;;;;;;;;;;;;;18.04;100.00;99318.91;5032015;28;866;-52
2023/07/06 00:03:56;;;;;;;;;;;;;;;17.94;100.00;99320.97;5032003;28;1141;-52
2023/07/06 00:06:24;;;;;;;;;;;;;;;17.94;100.00;99323.75;5031916;28;909;-55
2023/07/06 00:08:54;;;;;;;;;;;;;;;18.00;100.00;99321.09;5031860;28;889;-53
2023/07/06 00:11:21;;;;;;;;;;;;;;;17.96;100.00;99328.84;5031938;28;905;-54
2023/07/06 00:13:48;;;;;;;;;;;;;;;18.00;100.00;99314.72;5031462;28;1985;-54
2023/07/06 00:16:16;;;;;;;;;;;;;;;18.00;100.00;99323.88;5031314;28;881;-52
2023/07/06 00:18:43;;;;;;;;;;;;;;;18.03;100.00;99319.38;5031651;28;897;-52
2023/07/06 00:21:10;;;;;;;;;;;;;;;18.31;100.00;99320.19;5031753;28;794;-51
2023/07/06 00:23:37;;;;;;;;;;;;;;;18.52;100.00;99319.22;5031691;28;815;-54
2023/07/06 00:26:05;;;;;;;;;;;;;;;18.65;100.00;99307.84;5031565;28;961;-52
2023/07/06 00:28:32;;;;;;;;;;;;;;;18.69;100.00;99310.47;5030232;28;870;-52
2023/07/06 00:31:03;;;;;;;;;;;;;;;18.71;100.00;99305.16;5031582;28;799;-51
2023/07/06 00:33:30;;;;;;;;;;;;;;;18.76;100.00;99308.13;5031523;28;870;-54
2023/07/06 00:35:58;;;;;;;;;;;;;;;18.85;100.00;99303.78;5031422;28;1949;-56
2023/07/06 00:38:25;;;;;;;;;;;;;;;19.03;100.00;99297.31;5031495;28;888;-54
2023/07/06 00:40:57;;;;;;;;;;;;;;;19.22;100.00;99298.78;5031468;28;960;-52
2023/07/06 00:43:27;;;;;;;;;;;;;;;19.52;100.00;99298.94;5031460;28;913;-53
2023/07/06 00:45:56;;;;;;;;;;;;;;;19.83;100.00;99295.81;5031732;28;864;-54
2023/07/06 00:48:26;;;;;;;;;;;;;;;19.89;100.00;99305.13;5031720;28;838;-55
2023/07/06 00:50:56;;;;;;;;;;;;;;;20.10;100.00;99310.84;5031278;28;925;-52
2023/07/06 00:53:26;;;;;;;;;;;;;;;20.22;100.00;99315.44;5031387;28;862;-52
2023/07/06 00:55:57;;;;;;;;;;;;;;;20.29;100.00;99312.28;5031256;28;1972;-53
2023/07/06 00:58:31;;;;;;;;;;;;;;;20.17;100.00;99328.09;5031464;28;929;-54
2023/07/06 01:01:00;;;;;;;;;;;;;;;19.97;100.00;99322.34;5031422;28;806;-56
2023/07/06 01:03:28;;;;;;;;;;;;;;;19.76;100.00;99324.22;5031216;28;886;-54
2023/07/06 01:05:58;;;;;;;;;;;;;;;19.59;100.00;99319.00;5031511;28;905;-51
2023/07/06 01:08:26;;;;;;;;;;;;;;;19.47;100.00;99310.81;5030017;28;1008;-55
2023/07/06 01:10:56;;;;;;;;;;;;;;;19.46;100.00;99301.63;5031599;28;918;-53
2023/07/06 01:13:25;;;;;;;;;;;;;;;19.35;100.00;99312.56;5030781;28;1369;-56
2023/07/06 01:16:00;;;;;;;;;;;;;;;19.18;100.00;99307.38;5031085;28;1934;-52
2023/07/06 01:18:32;;;;;;;;;;;;;;;19.04;100.00;99305.25;5031383;28;877;-55
2023/07/06 01:21:17;;;;;;;;;;;;;;;18.92;100.00;99312.59;5031088;28;854;-56
2023/07/06 01:24:05;;;;;;;;;;;;;;;18.87;100.00;99315.28;5031107;28;842;-51
2023/07/06 01:26:38;;;;;;;;;;;;;;;18.83;100.00;99320.25;5030934;28;866;-56
2023/07/06 01:29:18;;;;;;;;;;;;;;;18.82;100.00;99319.50;5033789;28;933;-55
2023/07/06 01:31:56;;;;;;;;;;;;;;;18.80;100.00;99313.59;5035536;28;798;-54
2023/07/06 01:34:33;;;;;;;;;;;;;;;18.76;100.00;99318.53;5034611;28;1890;-56
2023/07/06 01:37:19;;;;;;;;;;;;;;;18.73;100.00;99317.47;5034997;28;822;-55
2023/07/06 01:39:48;;;;;;;;;;;;;;;18.78;100.00;99310.47;5034642;28;838;-54
2023/07/06 01:42:24;;;;;;;;;;;;;;;18.82;100.00;99313.09;5035281;28;751;-54
2023/07/06 01:44:52;;;;;;;;;;;;;;;18.84;100.00;99322.59;5034425;28;878;-53
2023/07/06 01:47:20;;;;;;;;;;;;;;;18.79;100.00;99322.44;5034488;28;819;-52
2023/07/06 01:49:48;;;;;;;;;;;;;;;18.73;100.00;99320.25;5034457;28;865;-54
2023/07/06 01:52:24;;;;;;;;;;;;;;;18.67;100.00;99312.94;5034595;28;879;-56
2023/07/06 01:55:08;;;;;;;;;;;;;;;18.55;100.00;99329.47;5034768;28;1881;-56
2023/07/06 01:57:48;;;;;;;;;;;;;;;18.50;100.00;99326.53;5034401;28;964;-55
2023/07/06 02:00:16;;;;;;;;;;;;;;;18.47;100.00;99328.22;5034287;28;814;-51
2023/07/06 02:02:44;;;;;;;;;;;;;;;18.46;100.00;99332.28;5034179;28;791;-54
2023/07/06 02:05:13;;;;;;;;;;;;;;;18.49;100.00;99331.34;5034107;28;929;-55
2023/07/06 02:07:41;;;;;;;;;;;;;;;18.57;100.00;99335.38;5032853;28;1516;-52
2023/07/06 02:10:13;;;;;;;;;;;;;;;18.60;100.00;99344.06;5034082;28;802;-55
2023/07/06 02:12:40;;;;;;;;;;;;;;;18.57;100.00;99343.75;5033980;28;1206;-54
2023/07/06 02:15:08;;;;;;;;;;;;;;;18.57;100.00;99343.00;5032599;28;1918;-52
2023/07/06 02:17:36;;;;;;;;;;;;;;;18.54;100.00;99347.50;5034201;28;850;-55
2023/07/06 02:20:04;;;;;;;;;;;;;;;18.51;100.00;99340.03;5034323;28;932;-56
2023/07/06 02:22:32;;;;;;;;;;;;;;;18.47;100.00;99342.22;5034110;28;802;-54
2023/07/06 02:24:59;;;;;;;;;;;;;;;18.38;100.00;99342.22;5033919;28;954;-56
2023/07/06 02:27:26;;;;;;;;;;;;;;;18.29;100.00;99353.44;5033795;28;834;-56
2023/07/06 02:29:54;;;;;;;;;;;;;;;18.21;100.00;99346.59;5032397;28;898;-53
2023/07/06 02:32:21;;;;;;;;;;;;;;;18.16;100.00;99342.41;5033652;28;810;-56
2023/07/06 02:34:49;;;;;;;;;;;;;;;18.10;100.00;99347.81;5033603;28;1959;-55
2023/07/06 02:37:16;;;;;;;;;;;;;;;18.07;100.00;99351.56;5033486;28;822;-55
2023/07/06 02:39:43;;;;;;;;;;;;;;;18.01;100.00;99339.44;5032924;28;898;-55
2023/07/06 02:42:14;;;;;;;;;;;;;;;17.95;100.00;99353.25;5033498;28;877;-53
2023/07/06 02:44:43;;;;;;;;;;;;;;;17.92;100.00;99354.19;5033372;28;882;-53
2023/07/06 02:47:13;;;;;;;;;;;;;;;18.14;100.00;99356.06;5033321;28;871;-55
2023/07/06 02:49:40;;;;;;;;;;;;;;;18.55;100.00;99354.66;5033340;28;811;-52
2023/07/06 02:52:07;;;;;;;;;;;;;;;18.81;100.00;99357.13;5033198;28;882;-53
2023/07/06 02:54:35;;;;;;;;;;;;;;;19.47;100.00;99352.84;5033048;28;1894;-55
2023/07/06 02:57:02;;;;;;;;;;;;;;;20.15;100.00;99353.06;5033167;28;839;-55
2023/07/06 02:59:30;;;;;;;;;;;;;;;20.69;100.00;99346.69;5033328;28;905;-50
2023/07/06 03:02:00;;;;;;;;;;;;;;;21.14;100.00;99350.25;5033173;28;873;-56
2023/07/06 03:04:28;;;;;;;;;;;;;;;21.34;100.00;99343.94;5033028;28;830;-53
2023/07/06 03:06:56;;;;;;;;;;;;;;;21.54;100.00;99346.81;5032976;28;802;-55
2023/07/06 03:09:23;;;;;;;;;;;;;;;21.64;100.00;99350.28;5032953;28;838;-57
2023/07/06 03:11:52;;;;;;;;;;;;;;;21.75;100.00;99346.84;5033526;28;895;-51
2023/07/06 03:14:25;;;;;;;;;;;;;;;21.87;100.00;99342.94;5032628;28;1988;-55
2023/07/06 03:16:55;;;;;;;;;;;;;;;22.00;100.00;99346.16;5032782;28;869;-56
2023/07/06 03:19:23;;;;;;;;;;;;;;;22.09;100.00;99342.41;5032693;28;846;-55
2023/07/06 03:21:52;;;;;;;;;;;;;;;22.16;100.00;99338.41;5031476;28;1688;-54
2023/07/06 03:24:19;;;;;;;;;;;;;;;22.21;100.00;99335.66;5032533;28;812;-55
2023/07/06 03:26:46;;;;;;;;;;;;;;;22.19;100.00;99335.38;5032558;28;902;-51
2023/07/06 03:29:13;;;;;;;;;;;;;;;22.21;100.00;99335.66;5032543;28;1055;-50
2023/07/06 03:31:41;;;;;;;;;;;;;;;22.24;100.00;99339.56;5032517;28;834;-55
2023/07/06 03:34:08;;;;;;;;;;;;;;;22.27;100.00;99338.56;5032365;28;1895;-57
2023/07/06 03:36:38;;;;;;;;;;;;;;;22.31;100.00;99336.28;5032287;28;922;-52
2023/07/06 03:39:06;;;;;;;;;;;;;;;22.34;100.00;99335.31;5032369;28;854;-53
2023/07/06 03:41:38;;;;;;;;;;;;;;;22.36;100.00;99329.19;5032335;28;850;-55
2023/07/06 03:44:06;;;;;;;;;;;;;;;22.32;100.00;99329.41;5032252;28;866;-55
2023/07/06 03:46:33;;;;;;;;;;;;;;;22.30;100.00;99331.19;5032217;28;850;-50
2023/07/06 03:49:03;;;;;;;;;;;;;;;22.30;100.00;99328.38;5032122;28;859;-51
2023/07/06 03:51:30;;;;;;;;;;;;;;;22.29;100.00;99326.81;5031307;28;890;-51
2023/07/06 03:53:58;;;;;;;;;;;;;;;22.31;100.00;99332.72;5031925;28;1906;-54
2023/07/06 03:56:29;;;;;;;;;;;;;;;22.30;100.00;99331.19;5032049;28;913;-55
2023/07/06 03:58:56;;;;;;;;;;;;;;;22.30;100.00;99334.00;5032013;28;826;-53
2023/07/06 04:01:24;;;;;;;;;;;;;;;22.31;100.00;99341.94;5031960;28;925;-51
2023/07/06 04:03:52;;;;;;;;;;;;;;;22.33;100.00;99338.63;5031973;28;1012;-50
2023/07/06 04:06:19;;;;;;;;;;;;;;;22.42;100.00;99341.28;5031808;28;937;-58
2023/07/06 04:08:46;;;;;;;;;;;;;;;22.58;100.00;99334.28;5031926;28;906;-49
2023/07/06 04:11:13;;;;;;;;;;;;;;;22.71;100.00;99342.34;5031768;28;1045;-54
2023/07/06 04:13:41;;;;;;;;;;;;;;;22.73;100.00;99331.34;5031592;28;1204;-50
2023/07/06 04:16:16;;;;;;;;;;;;;;;22.69;100.00;99330.81;5031926;28;803;-56
2023/07/06 04:18:44;;;;;;;;;;;;;;;22.71;100.00;99336.72;5031944;28;945;-54
2023/07/06 04:21:15;;;;;;;;;;;;;;;22.70;100.00;99341.53;5031664;28;866;-55
2023/07/06 04:23:42;;;;;;;;;;;;;;;22.69;100.00;99345.66;5031624;28;814;-52
2023/07/06 04:26:10;;;;;;;;;;;;;;;22.72;100.00;99350.28;5031722;28;870;-53
2023/07/06 04:28:40;;;;;;;;;;;;;;;22.76;100.00;99347.25;5031577;28;902;-53
2023/07/06 04:31:07;;;;;;;;;;;;;;;22.82;100.00;99351.66;5031655;28;846;-55
2023/07/06 04:33:34;;;;;;;;;;;;;;;22.87;100.00;99347.34;5031524;28;842;-56
2023/07/06 04:36:02;;;;;;;;;;;;;;;22.97;100.00;99342.31;5031489;28;1882;-52
2023/07/06 04:38:29;;;;;;;;;;;;;;;23.03;100.00;99351.63;5031497;28;913;-55
2023/07/06 04:40:57;;;;;;;;;;;;;;;23.07;100.00;99346.53;5031553;28;1180;-55
2023/07/06 04:43:26;;;;;;;;;;;;;;;23.12;100.00;99354.25;5031466;28;925;-50
2023/07/06 04:45:55;;;;;;;;;;;;;;;23.13;100.00;99347.34;5031423;28;869;-54
2023/07/06 04:48:24;;;;;;;;;;;;;;;23.20;100.00;99355.34;5031454;28;822;-50
2023/07/06 04:50:54;;;;;;;;;;;;;;;23.33;100.00;99356.97;5031402;28;888;-52
2023/07/06 04:53:23;;;;;;;;;;;;;;;23.41;100.00;99353.19;5031932;28;901;-54
2023/07/06 04:55:50;;;;;;;;;;;;;;;23.52;100.00;99357.38;5031273;28;1975;-56
2023/07/06 04:58:18;;;;;;;;;;;;;;;23.63;100.00;99352.53;5031419;28;1127;-52
2023/07/06 05:00:45;;;;;;;;;;;;;;;23.72;100.00;99367.72;5031405;28;901;-52
2023/07/06 05:03:11;;;;;;;;;;;;;;;23.78;100.00;99354.47;5033019;28;917;-53
2023/07/06 05:05:43;;;;;;;;;;;;;;;23.84;100.00;99369.38;5035252;28;902;-51
2023/07/06 05:08:12;;;;;;;;;;;;;;;23.87;100.00;99371.16;5035169;28;885;-49
2023/07/06 05:10:41;;;;;;;;;;;;;;;23.96;100.00;99361.72;5033913;28;1077;-52
2023/07/06 05:13:09;;;;;;;;;;;;;;;24.02;100.00;99362.53;5034883;28;1380;-53
2023/07/06 05:15:36;;;;;;;;;;;;;;;24.09;100.00;99364.09;5035081;28;1906;-50
2023/07/06 05:18:03;;;;;;;;;;;;;;;24.17;100.00;99359.50;5034979;28;854;-49
2023/07/06 05:20:31;;;;;;;;;;;;;;;24.30;99.36;99364.69;5035032;28;882;-54
2023/07/06 05:22:59;;;;;;;;;;;;;;;24.41;98.21;99373.19;5034820;28;866;-53
2023/07/06 05:25:26;;;;;;;;;;;;;;;24.43;96.68;99374.25;5035046;28;890;-49
2023/07/06 05:27:53;;;;;;;;;;;;;;;24.53;96.19;99380.44;5034830;28;953;-50
2023/07/06 05:30:20;;;;;;;;;;;;;;;24.64;93.96;99371.22;5034715;28;851;-54
2023/07/06 05:32:48;;;;;;;;;;;;;;;24.81;93.07;99366.34;5033612;28;868;-55
2023/07/06 05:35:15;;;;;;;;;;;;;;;25.11;91.51;99376.41;5034646;28;1890;-51
2023/07/06 05:37:43;;;;;;;;;;;;;;;25.41;90.42;99366.16;5033355;28;888;-53
2023/07/06 05:40:10;;;;;;;;;;;;;;;25.70;86.92;99369.69;5034588;28;953;-52
2023/07/06 05:42:37;;;;;;;;;;;;;;;25.81;83.59;99364.00;5034525;28;858;-49
2023/07/06 05:45:05;;;;;;;;;;;;;;;25.76;84.98;99370.44;5034414;28;910;-52
2023/07/06 05:47:33;;;;;;;;;;;;;;;25.77;83.86;99365.56;5034495;28;846;-56
2023/07/06 05:50:00;;;;;;;;;;;;;;;25.93;82.86;99366.84;5034435;28;815;-55
2023/07/06 05:52:27;;;;;;;;;;;;;;;26.14;80.82;99370.06;5034341;28;834;-53
2023/07/06 05:54:54;;;;;;;;;;;;;;;26.19;81.92;99374.97;5034169;28;1899;-54
2023/07/06 05:57:22;;;;;;;;;;;;;;;26.30;80.72;99371.31;5034594;28;878;-56
2023/07/06 05:59:51;;;;;;;;;;;;;;;26.61;79.77;99368.09;5034209;28;1037;-51
2023/07/06 06:02:20;;;;;;;;;;;;;;;26.82;76.72;99370.50;5034694;28;830;-54
2023/07/06 06:04:48;;;;;;;;;;;;;;;27.04;75.33;99358.25;5034139;28;944;-51
2023/07/06 06:07:14;;;;;;;;;;;;;;;27.19;73.33;99360.69;5034031;28;890;-54
2023/07/06 06:09:41;;;;;;;;;;;;;;;27.27;73.10;99364.53;5034067;28;1032;-54
2023/07/06 06:12:10;;;;;;;;;;;;;;;27.58;72.05;99362.41;5034408;28;925;-55
2023/07/06 06:14:37;;;;;;;;;;;;;;;27.86;69.52;99359.28;5032740;28;1902;-55
2023/07/06 06:17:05;;;;;;;;;;;;;;;28.17;68.83;99351.44;5033901;28;953;-50
2023/07/06 06:19:41;;;;;;;;;;;;;;;28.60;67.70;99351.38;5033935;28;815;-52
2023/07/06 06:22:11;;;;;;;;;;;;;;;29.04;64.67;99348.38;5033677;28;973;-56
2023/07/06 06:24:38;;;;;;;;;;;;;;;29.48;63.03;99352.53;5034036;28;890;-51
2023/07/06 06:27:06;;;;;;;;;;;;;;;29.87;60.18;99355.97;5033761;28;814;-50
2023/07/06 06:29:34;;;;;;;;;;;;;;;30.10;58.69;99356.28;5033754;28;846;-52
2023/07/06 06:32:02;;;;;;;;;;;;;;;30.37;57.99;99353.44;5033613;28;925;-56
2023/07/06 06:34:28;;;;;;;;;;;;;;;30.58;57.35;99345.69;5034254;28;1890;-56
2023/07/06 06:36:55;;;;;;;;;;;;;;;30.85;56.00;99354.91;5032385;28;854;-56
2023/07/06 06:39:22;;;;;;;;;;;;;;;30.64;55.13;99343.47;5033497;28;1111;-55
2023/07/06 06:41:49;;;;;;;;;;;;;;;30.97;56.44;99344.00;5033547;28;885;-53
2023/07/06 06:44:17;;;;;;;;;;;;;;;31.36;53.67;99347.19;5033465;28;846;-58
2023/07/06 06:46:45;;;;;;;;;;;;;;;31.37;52.15;99354.41;5034061;28;865;-57
2023/07/06 06:49:12;;;;;;;;;;;;;;;31.10;54.63;99351.75;5033770;28;976;-57
2023/07/06 06:51:40;;;;;;;;;;;;;;;31.20;53.96;99349.16;5033723;28;879;-56
2023/07/06 06:54:07;;;;;;;;;;;;;;;30.72;55.16;99349.25;5033454;28;1885;-56
2023/07/06 06:56:35;;;;;;;;;;;;;;;30.23;54.79;99335.56;5032256;28;1809;-57
2023/07/06 06:59:03;;;;;;;;;;;;;;;29.47;57.52;99348.19;5033161;28;877;-55
2023/07/06 07:01:31;;;;;;;;;;;;;;;29.15;59.58;99336.84;5033211;28;862;-56
2023/07/06 07:04:00;;;;;;;;;;;;;;;29.74;58.82;99336.81;5033095;28;1153;-57
2023/07/06 07:06:28;;;;;;;;;;;;;;;30.31;57.19;99337.22;5033002;28;862;-57
2023/07/06 07:08:57;;;;;;;;;;;;;;;30.52;55.67;99339.34;5032979;28;906;-56
2023/07/06 07:11:24;;;;;;;;;;;;;;;30.28;56.35;99332.63;5033029;28;1049;-57
2023/07/06 07:13:53;;;;;;;;;;;;;;;30.55;56.65;99338.22;5032610;28;1969;-57
2023/07/06 07:16:21;;;;;;;;;;;;;;;31.72;52.04;99330.91;5032956;28;807;-58
2023/07/06 07:18:48;;;;;;;;;;;;;;;32.21;50.35;99329.25;5032718;28;889;-58
2023/07/06 07:21:16;;;;;;;;;;;;;;;32.12;50.50;99347.72;5031378;28;1186;-58
2023/07/06 07:23:44;;;;;;;;;;;;;;;31.74;51.42;99342.53;5032734;28;870;-58
2023/07/06 07:26:12;;;;;;;;;;;;;;;31.14;52.83;99343.59;5032512;28;815;-58
2023/07/06 07:28:40;;;;;;;;;;;;;;;31.50;52.25;99355.13;5032525;28;1027;-58
2023/07/06 07:31:10;;;;;;;;;;;;;;;30.98;51.93;99345.53;5032505;28;984;-59
2023/07/06 07:33:38;;;;;;;;;;;;;;;30.35;53.49;99344.66;5032834;28;827;-58
2023/07/06 07:36:05;;;;;;;;;;;;;;;30.05;54.85;99348.66;5033357;28;1898;-58
2023/07/06 07:38:33;;;;;;;;;;;;;;;30.53;53.71;99350.22;5032548;28;1289;-58
2023/07/06 07:41:01;;;;;;;;;;;;;;;31.27;51.61;99351.31;5032597;28;905;-58
2023/07/06 07:43:29;;;;;;;;;;;;;;;31.26;51.62;99347.69;5032417;28;814;-59
2023/07/06 07:45:57;;;;;;;;;;;;;;;31.14;51.82;99350.06;5032370;28;886;-59
2023/07/06 07:48:25;;;;;;;;;;;;;;;32.06;50.25;99352.06;5032155;28;921;-58
2023/07/06 07:50:56;;;;;;;;;;;;;;;33.08;48.07;99353.34;5032363;28;870;-59
2023/07/06 07:53:24;;;;;;;;;;;;;;;33.34;45.94;99340.00;5032114;28;854;-59
2023/07/06 07:55:56;;;;;;;;;;;;;;;33.42;46.00;99351.44;5032041;28;1898;-58
2023/07/06 07:58:24;;;;;;;;;;;;;;;34.03;45.10;99350.56;5032069;28;936;-59
2023/07/06 08:00:52;;;;;;;;;;;;;;;34.44;43.86;99355.03;5030888;28;870;-58
2023/07/06 08:03:21;;;;;;;;;;;;;;;34.82;42.79;99359.03;5031981;28;846;-58
2023/07/06 08:05:46;;;;;;;;;;;;;;;34.96;41.99;99360.28;5031928;28;830;-58
2023/07/06 08:08:13;;;;;;;;;;;;;;;34.75;41.80;99357.72;5032015;28;826;-58
2023/07/06 08:10:41;;;;;;;;;;;;;;;34.67;41.12;99360.63;5031946;28;926;-58
2023/07/06 08:13:09;;;;;;;;;;;;;;;34.61;42.25;99351.50;5031649;28;1278;-58
2023/07/06 08:15:39;;;;;;;;;;;;;;;34.67;41.42;99359.88;5031977;28;1973;-58
2023/07/06 08:18:06;;;;;;;;;;;;;;;34.64;40.71;99361.81;5032107;28;961;-58
2023/07/06 08:20:33;;;;;;;;;;;;;;;34.87;39.71;99369.53;5031858;28;945;-59
2023/07/06 08:23:04;;;;;;;;;;;;;;;35.21;39.12;99360.31;5031998;28;815;-58
2023/07/06 08:25:40;;;;;;;;;;;;;;;35.46;38.33;99357.38;5031835;28;818;-58
2023/07/06 08:28:08;;;;;;;;;;;;;;;35.84;36.71;99364.16;5031586;28;957;-59
2023/07/06 08:30:36;;;;;;;;;;;;;;;36.46;36.09;99353.44;5031634;28;850;-58
2023/07/06 08:33:04;;;;;;;;;;;;;;;36.96;34.52;99358.88;5031939;28;890;-59
2023/07/06 08:35:31;;;;;;;;;;;;;;;36.77;34.19;99350.16;5030232;28;1968;-59
2023/07/06 08:38:04;;;;;;;;;;;;;;;35.99;33.84;99352.47;5031110;28;815;-58
2023/07/06 08:40:32;;;;;;;;;;;;;;;35.01;36.40;99344.91;5031633;28;918;-60
2023/07/06 08:43:00;;;;;;;;;;;;;;;34.18;38.16;99350.53;5031434;28;858;-59
2023/07/06 08:45:40;;;;;;;;;;;;;;;33.42;39.31;99349.34;5031463;28;925;-59
2023/07/06 08:48:12;;;;;;;;;;;;;;;32.41;41.36;99366.88;5031712;28;930;-59
2023/07/06 08:50:39;;;;;;;;;;;;;;;32.92;41.55;99355.41;5031603;28;802;-59
2023/07/06 08:53:12;;;;;;;;;;;;;;;33.88;39.66;99345.66;5031584;28;869;-59
2023/07/06 08:55:40;;;;;;;;;;;;;;;34.64;38.11;99358.94;5031261;28;1886;-59
2023/07/06 08:58:09;;;;;;;;;;;;;;;34.96;38.34;99352.41;5031395;28;834;-58
2023/07/06 09:00:36;;;;;;;;;;;;;;;35.45;37.29;99355.88;5031335;28;885;-59
2023/07/06 09:03:06;;;;;;;;;;;;;;;35.77;35.58;99362.88;5031329;28;850;-59
2023/07/06 09:05:37;;;;;;;;;;;;;;;36.32;35.42;99364.56;5031233;28;965;-58
2023/07/06 09:08:04;;;;;;;;;;;;;;;36.38;34.25;99361.41;5031212;28;913;-59
2023/07/06 09:10:32;;;;;;;;;;;;;;;36.34;33.68;99364.72;5031232;28;1105;-59
2023/07/06 09:13:13;;;;;;;;;;;;;;;36.32;33.57;99370.31;5030984;28;1197;-59
2023/07/06 09:15:40;;;;;;;;;;;;;;;36.03;33.48;99369.31;5031067;28;1910;-59
2023/07/06 09:18:12;;;;;;;;;;;;;;;36.04;33.38;99368.72;5031056;28;901;-57
2023/07/06 09:20:39;;;;;;;;;;;;;;;35.53;34.88;99373.81;5031157;28;857;-56
2023/07/06 09:23:12;;;;;;;;;;;;;;;34.82;35.89;99370.50;5031093;28;902;-54
2023/07/06 09:25:42;;;;;;;;;;;;;;;34.57;35.18;99374.84;5031741;28;803;-56
2023/07/06 09:28:18;;;;;;;;;;;;;;;34.98;35.84;99374.81;5031315;28;870;-52
2023/07/06 09:30:45;;;;;;;;;;;;;;;35.54;35.15;99374.56;5031035;28;913;-56
2023/07/06 09:33:26;;;;;;;;;;;;;;;35.61;34.78;99367.97;5031040;28;877;-56
2023/07/06 09:35:54;;;;;;;;;;;;;;;35.24;35.47;99372.72;5031035;28;1945;-56
2023/07/06 09:38:23;;;;;;;;;;;;;;;34.40;36.11;99371.09;5030959;28;814;-56
2023/07/06 10:11:55;;;;;;;;;;;;;;;34.01;37.78;99364.72;5776526;22;1654;-62
2023/07/06 10:15:00;;;;;;;;;;;;;;;33.88;38.11;99351.38;5034282;28;1971;-63
2023/07/06 10:17:28;;;;;;;;;;;;;;;33.05;39.41;99360.19;5012053;28;1331;-62
2023/07/06 10:20:12;;;;;;;;;;;;;;;33.45;39.46;99353.16;5012006;28;935;-63
2023/07/06 10:22:45;;;;;;;;;;;;;;;33.75;38.66;99350.25;5012047;28;815;-63
2023/07/06 10:25:19;;;;;;;;;;;;;;;34.33;38.08;99352.56;5011996;28;1034;-62
2023/07/06 10:27:53;;;;;;;;;;;;;;;34.64;37.62;99352.44;5012227;28;945;-62
2023/07/06 10:30:31;;;;;;;;;;;;;;;34.80;37.13;99351.00;5011807;28;886;-62
2023/07/06 10:33:02;;;;;;;;;;;;;;;34.69;36.44;99343.59;5011809;28;965;-63
2023/07/06 10:35:31;;;;;;;;;;;;;;;35.05;36.36;99338.78;5011740;28;1878;-63
2023/07/06 10:37:59;;;;;;;;;;;;;;;35.22;36.71;99329.47;5011798;28;1067;-63
2023/07/06 10:40:27;;;;;;;;;;;;;;;35.29;36.43;99322.88;5011707;28;826;-62
2023/07/06 10:43:13;;;;;;;;;;;;;;;35.57;36.53;99330.28;4995126;28;1169;-62
2023/07/06 10:45:46;;;;;;;;;;;;;;;35.37;36.34;99315.72;5011598;28;1115;-61
2023/07/06 10:48:34;;;;;;;;;;;;;;;35.20;36.17;99318.56;5011552;28;823;-62
2023/07/06 10:51:17;;;;;;;;;;;;;;;35.25;36.25;99314.72;5019310;28;1045;-63
2023/07/06 10:54:06;;;;;;;;;;;;;;;34.67;36.42;99325.44;5032097;28;1532;-63
2023/07/06 10:56:38;;;;;;;;;;;;;;;34.17;37.50;99309.63;5033222;28;849;-62
2023/07/06 10:59:12;;;;;;;;;;;;;;;34.53;37.52;99317.09;5033550;28;854;-61
2023/07/06 11:01:50;;;;;;;;;;;;;;;35.57;36.50;99310.94;5015036;28;1253;-62
2023/07/06 11:04:36;;;;;;;;;;;;;;;36.42;35.15;99314.94;5033055;28;925;-61
2023/07/06 11:07:07;;;;;;;;;;;;;;;37.11;33.80;99319.72;5033056;28;854;-62
2023/07/06 11:09:54;;;;;;;;;;;;;;;37.39;33.54;99307.50;5033031;28;831;-62
2023/07/06 11:12:24;;;;;;;;;;;;;;;37.42;32.62;99299.75;5032625;28;1639;-62
2023/07/06 11:15:10;;;;;;;;;;;;;;;37.24;32.82;99302.00;5032890;28;1910;-62
2023/07/06 11:17:38;;;;;;;;;;;;;;;36.47;33.99;99303.19;5032919;28;889;-62
2023/07/06 11:20:16;;;;;;;;;;;;;;;35.47;35.32;99306.47;5032838;28;888;-62
2023/07/06 11:22:44;;;;;;;;;;;;;;;35.54;35.75;99306.34;5033075;28;826;-63
2023/07/06 11:25:14;;;;;;;;;;;;;;;36.47;34.77;99299.53;5032817;28;837;-62
2023/07/06 11:27:45;;;;;;;;;;;;;;;36.77;34.03;99301.22;5032674;28;834;-62
2023/07/06 11:30:22;;;;;;;;;;;;;;;36.48;34.33;99298.94;5032621;28;882;-63
2023/07/06 11:33:06;;;;;;;;;;;;;;;36.29;34.64;99302.44;5032589;28;857;-62
2023/07/06 11:35:42;;;;;;;;;;;;;;;36.35;33.90;99305.81;5032493;28;1886;-62
2023/07/06 11:38:27;;;;;;;;;;;;;;;36.91;32.99;99292.94;5032675;28;870;-63
2023/07/06 11:41:06;;;;;;;;;;;;;;;37.09;32.84;99291.50;5032767;28;831;-62
2023/07/06 11:43:56;;;;;;;;;;;;;;;37.46;32.39;99288.53;5032340;28;794;-63
2023/07/06 11:46:43;;;;;;;;;;;;;;;37.33;32.73;99283.22;5032200;28;2293;-62
2023/07/06 11:49:25;;;;;;;;;;;;;;;36.69;33.41;99289.81;5032268;28;854;-62
2023/07/06 11:51:53;;;;;;;;;;;;;;;35.96;34.01;99287.53;5032133;28;968;-62
2023/07/06 11:54:40;;;;;;;;;;;;;;;35.66;34.66;99277.91;5030971;28;1890;-62
2023/07/06 11:57:42;;;;;;;;;;;;;;;35.63;35.02;99272.56;5032132;28;894;-62
2023/07/06 12:00:18;;;;;;;;;;;;;;;35.08;35.15;99277.28;5032275;28;838;-62
2023/07/06 12:02:48;;;;;;;;;;;;;;;34.68;35.87;99267.47;5032096;28;846;-62
2023/07/06 12:05:29;;;;;;;;;;;;;;;35.05;35.42;99267.00;5031973;28;975;-62
2023/07/06 12:07:58;;;;;;;;;;;;;;;35.22;35.80;99266.28;5031982;28;893;-62
2023/07/06 12:10:26;;;;;;;;;;;;;;;35.73;36.16;99259.81;5031833;28;988;-61
2023/07/06 12:12:55;;;;;;;;;;;;;;;36.78;33.94;99257.41;5030968;28;1668;-62
2023/07/06 12:15:22;;;;;;;;;;;;;;;37.95;32.64;99251.81;5031814;28;1980;-62
2023/07/06 12:17:57;;;;;;;;;;;;;;;38.76;31.02;99258.31;5031871;28;869;-62
2023/07/06 12:20:29;;;;;;;;;;;;;;;39.39;29.81;99253.22;5032120;28;819;-62
2023/07/06 12:22:58;;;;;;;;;;;;;;;39.67;29.27;99253.63;5031983;28;830;-63
2023/07/06 12:25:25;;;;;;;;;;;;;;;40.68;27.66;99250.00;5031687;28;858;-62
2023/07/06 12:28:01;;;;;;;;;;;;;;;40.73;27.33;99248.88;5031723;28;866;-62
2023/07/06 12:30:33;;;;;;;;;;;;;;;40.97;26.59;99248.88;5031849;28;790;-62
2023/07/06 12:33:04;;;;;;;;;;;;;;;41.24;26.07;99244.69;5031636;28;862;-63
2023/07/06 12:35:33;;;;;;;;;;;;;;;41.45;25.53;99238.72;5032001;28;1953;-63
2023/07/06 12:38:02;;;;;;;;;;;;;;;41.33;25.24;99237.97;5031565;28;858;-63
2023/07/06 12:40:33;;;;;;;;;;;;;;;40.64;25.39;99241.06;5031531;28;881;-63
2023/07/06 12:43:02;;;;;;;;;;;;;;;40.25;25.69;99232.84;5031626;28;886;-64
2023/07/06 12:45:31;;;;;;;;;;;;;;;40.15;26.03;99232.94;5031469;28;837;-63
2023/07/06 12:48:01;;;;;;;;;;;;;;;41.12;25.52;99236.00;5031512;28;877;-64
2023/07/06 12:50:35;;;;;;;;;;;;;;;40.84;25.53;99232.13;5031456;28;913;-62
2023/07/06 12:53:08;;;;;;;;;;;;;;;40.42;26.14;99235.41;5031553;28;881;-63
2023/07/06 12:55:36;;;;;;;;;;;;;;;40.22;25.68;99219.59;5031353;28;1949;-62
2023/07/06 12:58:17;;;;;;;;;;;;;;;40.28;25.44;99228.69;5031313;28;924;-63
2023/07/06 13:00:46;;;;;;;;;;;;;;;39.33;26.43;99226.81;5031820;28;866;-63
2023/07/06 13:03:13;;;;;;;;;;;;;;;39.10;26.61;99219.53;5031356;28;794;-63
2023/07/06 13:05:40;;;;;;;;;;;;;;;38.79;26.93;99223.19;5031302;28;888;-62
2023/07/06 13:08:13;;;;;;;;;;;;;;;38.96;27.20;99215.66;5031378;28;825;-63
2023/07/06 13:10:43;;;;;;;;;;;;;;;38.75;27.40;99211.38;5031230;28;951;-63
2023/07/06 13:13:20;;;;;;;;;;;;;;;38.89;28.13;99214.47;5030961;28;1412;-62
2023/07/06 13:15:55;;;;;;;;;;;;;;;38.39;28.20;99207.41;5031378;28;2020;-62
2023/07/06 13:18:21;;;;;;;;;;;;;;;37.61;29.42;99208.94;5031214;28;866;-62
2023/07/06 13:20:49;;;;;;;;;;;;;;;37.55;30.09;99204.19;5031232;28;881;-62
2023/07/06 13:23:19;;;;;;;;;;;;;;;37.81;29.46;99201.75;5031455;28;830;-62
2023/07/06 13:25:49;;;;;;;;;;;;;;;37.92;29.25;99204.03;5034896;28;977;-62
2023/07/06 13:28:20;;;;;;;;;;;;;;;38.27;29.24;99197.88;5034909;28;842;-62
2023/07/06 13:30:49;;;;;;;;;;;;;;;39.25;27.96;99191.59;5035072;28;841;-62
2023/07/06 13:33:18;;;;;;;;;;;;;;;39.95;27.28;99189.00;5035032;28;921;-62
2023/07/06 13:35:46;;;;;;;;;;;;;;;39.51;27.61;99187.59;5035096;28;1962;-63
2023/07/06 13:38:14;;;;;;;;;;;;;;;38.38;28.38;99179.91;5034717;28;890;-62
2023/07/06 13:40:42;;;;;;;;;;;;;;;37.98;29.46;99172.75;5034641;28;855;-63
2023/07/06 13:43:16;;;;;;;;;;;;;;;38.20;29.28;99176.50;5034648;28;831;-62
2023/07/06 13:45:43;;;;;;;;;;;;;;;38.03;28.88;99173.81;5034735;28;818;-62
2023/07/06 13:48:12;;;;;;;;;;;;;;;37.65;29.50;99171.75;5034480;28;944;-63